createdAt,value
2022-12-12T00:05:35.010Z,0.31
2022-12-12T00:15:39.224Z,0.41
2022-12-12T00:25:45.326Z,0.34
2022-12-12T00:35:51.576Z,0.42
2022-12-12T00:45:59.328Z,0.44
2022-12-12T00:56:03.093Z,0.44
2022-12-12T01:06:09.159Z,0.31
2022-12-12T01:16:13.798Z,0.41
2022-12-12T01:26:22.730Z,0.52
2022-12-12T01:36:26.467Z,0.50
2022-12-12T01:46:40.663Z,0.58
2022-12-12T01:56:46.919Z,0.56
2022-12-12T02:06:53.295Z,0.48
2022-12-12T02:17:30.752Z,0.52
2022-12-12T02:28:16.237Z,0.44
2022-12-12T02:38:30.965Z,0.32
2022-12-12T02:48:42.591Z,0.42
2022-12-12T02:58:47.698Z,0.51
2022-12-12T03:09:05.745Z,0.45
2022-12-12T03:19:16.738Z,0.55
2022-12-12T03:29:27.146Z,0.62
2022-12-12T03:39:38.785Z,0.55
2022-12-12T03:49:48.824Z,0.57
2022-12-12T03:59:58.894Z,0.51
2022-12-12T04:10:20.389Z,0.53
2022-12-12T04:20:48.605Z,0.55
2022-12-12T04:30:52.488Z,0.27
2022-12-12T04:41:00.614Z,0.25
2022-12-12T04:51:05.470Z,0.18
2022-12-12T05:01:17.156Z,0.27
2022-12-12T05:11:22.126Z,0.19
2022-12-12T05:21:27.617Z,0.16
2022-12-12T05:31:31.452Z,0.12
2022-12-12T05:41:36.488Z,0.21
2022-12-12T05:51:40.248Z,0.32
2022-12-12T06:01:45.275Z,0.26
2022-12-12T06:11:48.967Z,0.29
2022-12-12T06:21:54.137Z,0.18
2022-12-12T06:31:57.841Z,0.23
2022-12-12T06:42:03.677Z,0.21
2022-12-12T06:52:07.417Z,0.59
2022-12-12T07:02:13.073Z,1.15
2022-12-12T07:12:16.860Z,0.74
2022-12-12T07:22:22.329Z,0.55
2022-12-12T07:32:26.385Z,0.49
2022-12-12T07:42:32.170Z,0.81
2022-12-12T07:52:36.225Z,0.54
2022-12-12T08:02:41.626Z,0.65
2022-12-12T08:12:45.333Z,0.77
2022-12-12T08:22:50.635Z,0.96
2022-12-12T08:32:54.553Z,1.35
2022-12-12T08:42:59.866Z,1.42
2022-12-12T08:53:04.061Z,1.68
2022-12-12T09:03:09.480Z,1.55
2022-12-12T09:13:13.565Z,1.36
2022-12-12T09:23:19.202Z,1.13
2022-12-12T09:33:22.949Z,1.01
2022-12-12T09:43:32.773Z,1.02
2022-12-12T09:53:40.212Z,1.04
2022-12-12T10:04:03.226Z,0.70
2022-12-12T10:14:10.088Z,1.54
2022-12-12T10:24:29.712Z,1.35
2022-12-12T10:34:55.242Z,1.00
2022-12-12T10:45:41.309Z,1.54
2022-12-12T10:55:52.235Z,1.67
2022-12-12T11:05:58.215Z,2.37
2022-12-12T11:16:13.310Z,2.04
2022-12-12T11:26:20.758Z,1.23
2022-12-12T11:36:32.917Z,1.33
2022-12-12T11:46:37.929Z,1.29
2022-12-12T11:56:51.073Z,1.44
2022-12-12T12:07:16.784Z,1.39
2022-12-12T12:17:34.397Z,1.23
2022-12-12T12:27:47.397Z,1.11
2022-12-12T12:38:05.718Z,1.06
2022-12-12T12:48:19.327Z,1.02
2022-12-12T12:58:27.392Z,0.96
2022-12-12T13:08:46.124Z,0.92
2022-12-12T13:19:03.494Z,0.77
2022-12-12T13:29:27.033Z,0.56
2022-12-12T13:39:34.099Z,0.47
2022-12-12T13:49:51.490Z,0.69
2022-12-12T14:00:22.234Z,0.14
2022-12-12T14:10:32.842Z,0.15
2022-12-12T14:20:41.460Z,0.12
2022-12-12T14:30:55.137Z,0.02
2022-12-12T14:41:05.616Z,-0.18
2022-12-12T14:51:17.699Z,-0.44
2022-12-12T15:01:32.565Z,-0.35
2022-12-12T15:11:38.281Z,-0.62
2022-12-12T15:21:43.852Z,-0.75
2022-12-12T15:32:00.850Z,-1.02
2022-12-12T15:42:06.301Z,-0.81
2022-12-12T15:52:19.332Z,-1.08
2022-12-12T16:02:26.633Z,-1.32
2022-12-12T16:13:01.979Z,-1.47
2022-12-12T16:23:22.836Z,-1.36
2022-12-12T16:33:34.130Z,-1.38
2022-12-12T16:43:40.616Z,-1.17
2022-12-12T16:53:45.960Z,-1.60
2022-12-12T17:03:49.831Z,-1.53
2022-12-12T17:13:54.961Z,-1.88
2022-12-12T17:23:59.719Z,-2.05
2022-12-12T17:34:07.012Z,-2.18
2022-12-12T17:44:10.861Z,-2.43
2022-12-12T17:54:15.990Z,-2.24
2022-12-12T18:04:24.479Z,-2.51
2022-12-12T18:14:33.135Z,-2.52
2022-12-12T18:24:36.877Z,-2.62
2022-12-12T18:34:42.126Z,-2.88
2022-12-12T18:44:45.843Z,-2.84
2022-12-12T18:54:52.040Z,-2.54
2022-12-12T19:04:56.803Z,-2.86
2022-12-12T19:15:18.160Z,-2.93
2022-12-12T19:25:22.724Z,-3.15
2022-12-12T19:35:27.872Z,-3.31
2022-12-12T19:45:31.685Z,-3.23
2022-12-12T19:55:36.924Z,-3.07
2022-12-12T20:05:42.272Z,-3.43
2022-12-12T20:15:47.630Z,-3.12
2022-12-12T20:25:51.476Z,-3.15
2022-12-12T20:35:56.537Z,-3.48
2022-12-12T20:46:00.456Z,-3.63
2022-12-12T20:56:11.013Z,-3.99
2022-12-12T21:06:17.344Z,-3.94
2022-12-12T21:16:25.588Z,-3.74
2022-12-12T21:26:31.851Z,-4.20
2022-12-12T21:36:37.450Z,-4.13
2022-12-12T21:46:43.331Z,-4.18
2022-12-12T21:56:48.575Z,-4.19
2022-12-12T22:06:52.274Z,-4.24
2022-12-12T22:16:57.339Z,-4.06
2022-12-12T22:27:02.377Z,-4.55
2022-12-12T22:37:07.406Z,-4.63
2022-12-12T22:47:11.108Z,-4.54
2022-12-12T22:57:16.119Z,-4.70
2022-12-12T23:07:19.948Z,-4.38
2022-12-12T23:17:24.964Z,-4.44
2022-12-12T23:27:28.734Z,-4.30
2022-12-12T23:37:33.751Z,-4.71
2022-12-12T23:47:37.496Z,-4.75
2022-12-12T23:57:42.488Z,-4.80
